sensor_id;sensor_type;location;lat;lon;timestamp;pressure;altitude;pressure_sealevel;temperature;humidity
51926;BME280;37952;51.938;15.480;2022-11-22T00:02:56;98575.06;;;-2.01;77.32
51926;BME280;37952;51.938;15.480;2022-11-22T00:06:03;98557.09;;;-2.06;77.24
51926;BME280;37952;51.938;15.480;2022-11-22T00:09:05;98564.10;;;-2.04;77.37
51926;BME280;37952;51.938;15.480;2022-11-22T00:12:09;98561.80;;;-2.02;77.37
51926;BME280;37952;51.938;15.480;2022-11-22T00:15:11;98550.48;;;-1.99;77.47
51926;BME280;37952;51.938;15.480;2022-11-22T00:18:12;98547.27;;;-2.01;77.40
51926;BME280;37952;51.938;15.480;2022-11-22T00:21:14;98548.84;;;-2.01;77.13
51926;BME280;37952;51.938;15.480;2022-11-22T00:24:16;98548.11;;;-2.01;77.01
51926;BME280;37952;51.938;15.480;2022-11-22T00:27:19;98550.69;;;-2.00;77.09
51926;BME280;37952;51.938;15.480;2022-11-22T00:30:20;98547.11;;;-1.96;77.18
51926;BME280;37952;51.938;15.480;2022-11-22T00:33:22;98548.84;;;-1.95;77.00
51926;BME280;37952;51.938;15.480;2022-11-22T00:36:24;98541.59;;;-1.96;76.99
51926;BME280;37952;51.938;15.480;2022-11-22T00:39:25;98541.55;;;-1.94;76.99
51926;BME280;37952;51.938;15.480;2022-11-22T00:42:27;98544.67;;;-1.95;76.84
51926;BME280;37952;51.938;15.480;2022-11-22T00:45:29;98546.29;;;-1.97;77.27
51926;BME280;37952;51.938;15.480;2022-11-22T00:48:30;98551.70;;;-1.99;77.37
51926;BME280;37952;51.938;15.480;2022-11-22T00:51:32;98550.64;;;-1.99;77.31
51926;BME280;37952;51.938;15.480;2022-11-22T00:54:34;98559.36;;;-1.95;77.19
51926;BME280;37952;51.938;15.480;2022-11-22T00:57:35;98558.19;;;-1.91;77.33
51926;BME280;37952;51.938;15.480;2022-11-22T01:00:37;98552.55;;;-1.92;77.57
51926;BME280;37952;51.938;15.480;2022-11-22T01:03:39;98551.54;;;-1.88;77.32
51926;BME280;37952;51.938;15.480;2022-11-22T01:06:40;98546.69;;;-1.88;77.49
51926;BME280;37952;51.938;15.480;2022-11-22T01:09:42;98544.70;;;-1.84;77.82
51926;BME280;37952;51.938;15.480;2022-11-22T01:12:43;98543.37;;;-1.80;77.54
51926;BME280;37952;51.938;15.480;2022-11-22T01:15:45;98545.30;;;-1.75;77.53
51926;BME280;37952;51.938;15.480;2022-11-22T01:18:46;98547.95;;;-1.71;77.94
51926;BME280;37952;51.938;15.480;2022-11-22T01:21:48;98545.91;;;-1.72;77.65
51926;BME280;37952;51.938;15.480;2022-11-22T01:24:49;98542.64;;;-1.73;77.96
51926;BME280;37952;51.938;15.480;2022-11-22T01:27:51;98544.33;;;-1.72;77.96
51926;BME280;37952;51.938;15.480;2022-11-22T01:30:54;98545.46;;;-1.69;77.71
51926;BME280;37952;51.938;15.480;2022-11-22T01:33:56;98537.55;;;-1.70;77.91
51926;BME280;37952;51.938;15.480;2022-11-22T01:36:59;98541.77;;;-1.67;77.78
51926;BME280;37952;51.938;15.480;2022-11-22T01:40:01;98543.02;;;-1.63;78.09
51926;BME280;37952;51.938;15.480;2022-11-22T01:43:03;98545.98;;;-1.57;78.01
51926;BME280;37952;51.938;15.480;2022-11-22T01:46:35;98543.14;;;-1.55;78.06
51926;BME280;37952;51.938;15.480;2022-11-22T01:49:52;98535.61;;;-1.57;78.26
51926;BME280;37952;51.938;15.480;2022-11-22T01:52:59;98535.90;;;-1.55;78.28
51926;BME280;37952;51.938;15.480;2022-11-22T01:56:06;98539.71;;;-1.50;77.98
51926;BME280;37952;51.938;15.480;2022-11-22T01:59:13;98541.89;;;-1.49;78.12
51926;BME280;37952;51.938;15.480;2022-11-22T02:02:16;98536.81;;;-1.46;77.87
51926;BME280;37952;51.938;15.480;2022-11-22T02:05:21;98532.23;;;-1.43;77.72
51926;BME280;37952;51.938;15.480;2022-11-22T02:08:31;98526.90;;;-1.44;77.95
51926;BME280;37952;51.938;15.480;2022-11-22T02:11:38;98524.50;;;-1.45;78.21
51926;BME280;37952;51.938;15.480;2022-11-22T02:14:42;98519.47;;;-1.44;78.26
51926;BME280;37952;51.938;15.480;2022-11-22T02:17:43;98521.17;;;-1.44;78.48
51926;BME280;37952;51.938;15.480;2022-11-22T02:20:45;98522.88;;;-1.42;78.22
51926;BME280;37952;51.938;15.480;2022-11-22T02:24:09;98513.58;;;-1.43;78.27
51926;BME280;37952;51.938;15.480;2022-11-22T02:27:13;98514.63;;;-1.43;78.22
51926;BME280;37952;51.938;15.480;2022-11-22T02:30:15;98510.07;;;-1.42;78.29
51926;BME280;37952;51.938;15.480;2022-11-22T02:33:18;98510.50;;;-1.44;79.01
51926;BME280;37952;51.938;15.480;2022-11-22T02:36:19;98516.15;;;-1.43;78.76
51926;BME280;37952;51.938;15.480;2022-11-22T02:39:25;98514.41;;;-1.48;79.02
51926;BME280;37952;51.938;15.480;2022-11-22T02:42:30;98520.48;;;-1.49;79.18
51926;BME280;37952;51.938;15.480;2022-11-22T02:45:31;98510.41;;;-1.47;79.10
51926;BME280;37952;51.938;15.480;2022-11-22T02:48:33;98507.70;;;-1.44;78.81
51926;BME280;37952;51.938;15.480;2022-11-22T02:51:35;98508.55;;;-1.38;78.94
51926;BME280;37952;51.938;15.480;2022-11-22T02:54:37;98506.00;;;-1.39;78.76
51926;BME280;37952;51.938;15.480;2022-11-22T02:57:42;98508.48;;;-1.41;79.15
51926;BME280;37952;51.938;15.480;2022-11-22T03:00:43;98506.81;;;-1.43;79.28
51926;BME280;37952;51.938;15.480;2022-11-22T03:03:45;98511.75;;;-1.40;79.09
51926;BME280;37952;51.938;15.480;2022-11-22T03:06:46;98500.14;;;-1.40;79.13
51926;BME280;37952;51.938;15.480;2022-11-22T03:09:48;98500.96;;;-1.38;79.15
51926;BME280;37952;51.938;15.480;2022-11-22T03:12:50;98501.36;;;-1.40;79.54
51926;BME280;37952;51.938;15.480;2022-11-22T03:15:52;98497.11;;;-1.42;79.95
51926;BME280;37952;51.938;15.480;2022-11-22T03:18:53;98492.95;;;-1.41;79.97
51926;BME280;37952;51.938;15.480;2022-11-22T03:21:55;98492.45;;;-1.42;79.94
51926;BME280;37952;51.938;15.480;2022-11-22T03:24:56;98489.34;;;-1.42;79.87
51926;BME280;37952;51.938;15.480;2022-11-22T03:27:58;98487.55;;;-1.41;79.89
51926;BME280;37952;51.938;15.480;2022-11-22T03:30:59;98485.25;;;-1.39;80.22
51926;BME280;37952;51.938;15.480;2022-11-22T03:34:01;98480.48;;;-1.36;80.37
51926;BME280;37952;51.938;15.480;2022-11-22T03:37:02;98475.55;;;-1.38;80.38
51926;BME280;37952;51.938;15.480;2022-11-22T03:40:04;98474.17;;;-1.38;80.44
51926;BME280;37952;51.938;15.480;2022-11-22T03:43:06;98469.12;;;-1.37;80.11
51926;BME280;37952;51.938;15.480;2022-11-22T03:46:15;98463.98;;;-1.33;80.40
51926;BME280;37952;51.938;15.480;2022-11-22T03:49:19;98472.01;;;-1.35;80.62
51926;BME280;37952;51.938;15.480;2022-11-22T03:52:21;98470.98;;;-1.36;80.54
51926;BME280;37952;51.938;15.480;2022-11-22T03:55:22;98466.70;;;-1.37;80.72
51926;BME280;37952;51.938;15.480;2022-11-22T03:58:24;98470.17;;;-1.38;80.98
51926;BME280;37952;51.938;15.480;2022-11-22T04:01:25;98470.50;;;-1.37;80.82
51926;BME280;37952;51.938;15.480;2022-11-22T04:04:26;98473.63;;;-1.38;81.12
51926;BME280;37952;51.938;15.480;2022-11-22T04:07:28;98484.49;;;-1.36;80.77
51926;BME280;37952;51.938;15.480;2022-11-22T04:10:30;98494.84;;;-1.30;81.03
51926;BME280;37952;51.938;15.480;2022-11-22T04:13:31;98494.27;;;-1.24;80.64
51926;BME280;37952;51.938;15.480;2022-11-22T04:16:51;98492.68;;;-1.23;80.87
51926;BME280;37952;51.938;15.480;2022-11-22T04:19:53;98493.20;;;-1.23;80.54
51926;BME280;37952;51.938;15.480;2022-11-22T04:23:21;98500.11;;;-1.22;80.54
51926;BME280;37952;51.938;15.480;2022-11-22T04:26:23;98499.92;;;-1.22;80.84
51926;BME280;37952;51.938;15.480;2022-11-22T04:29:25;98491.86;;;-1.19;80.68
51926;BME280;37952;51.938;15.480;2022-11-22T04:32:26;98491.67;;;-1.18;80.58
51926;BME280;37952;51.938;15.480;2022-11-22T04:35:47;98494.98;;;-1.14;80.40
51926;BME280;37952;51.938;15.480;2022-11-22T04:38:49;98489.85;;;-1.09;80.66
51926;BME280;37952;51.938;15.480;2022-11-22T04:41:55;98480.54;;;-1.11;80.97
51926;BME280;37952;51.938;15.480;2022-11-22T04:45:15;98472.94;;;-1.11;80.71
51926;BME280;37952;51.938;15.480;2022-11-22T04:48:18;98469.58;;;-1.08;80.64
51926;BME280;37952;51.938;15.480;2022-11-22T04:51:20;98463.48;;;-1.12;80.68
51926;BME280;37952;51.938;15.480;2022-11-22T04:54:40;98459.27;;;-1.16;81.25
51926;BME280;37952;51.938;15.480;2022-11-22T04:57:41;98469.11;;;-1.16;80.93
51926;BME280;37952;51.938;15.480;2022-11-22T05:00:46;98470.24;;;-1.13;81.01
51926;BME280;37952;51.938;15.480;2022-11-22T05:03:47;98455.50;;;-1.17;80.93
51926;BME280;37952;51.938;15.480;2022-11-22T05:06:49;98476.79;;;-1.07;80.85
51926;BME280;37952;51.938;15.480;2022-11-22T05:09:51;98484.54;;;-1.12;80.97
51926;BME280;37952;51.938;15.480;2022-11-22T05:12:53;98489.34;;;-1.10;81.00
51926;BME280;37952;51.938;15.480;2022-11-22T05:15:57;98499.48;;;-1.08;80.92
51926;BME280;37952;51.938;15.480;2022-11-22T05:19:25;98495.70;;;-1.04;80.88
51926;BME280;37952;51.938;15.480;2022-11-22T05:22:26;98492.60;;;-1.04;80.77
51926;BME280;37952;51.938;15.480;2022-11-22T05:25:47;98491.58;;;-1.00;80.60
51926;BME280;37952;51.938;15.480;2022-11-22T05:28:48;98489.10;;;-0.98;80.77
51926;BME280;37952;51.938;15.480;2022-11-22T05:31:50;98484.58;;;-0.97;80.70
51926;BME280;37952;51.938;15.480;2022-11-22T05:34:52;98489.80;;;-0.93;80.62
51926;BME280;37952;51.938;15.480;2022-11-22T05:37:57;98494.10;;;-0.93;80.78
51926;BME280;37952;51.938;15.480;2022-11-22T05:41:00;98496.63;;;-0.95;81.11
51926;BME280;37952;51.938;15.480;2022-11-22T05:44:03;98495.98;;;-0.96;81.11
51926;BME280;37952;51.938;15.480;2022-11-22T05:47:04;98500.27;;;-0.96;81.02
51926;BME280;37952;51.938;15.480;2022-11-22T05:50:06;98505.33;;;-0.97;81.36
51926;BME280;37952;51.938;15.480;2022-11-22T05:53:08;98501.30;;;-1.01;81.35
51926;BME280;37952;51.938;15.480;2022-11-22T05:56:12;98497.34;;;-1.01;81.34
51926;BME280;37952;51.938;15.480;2022-11-22T05:59:14;98498.81;;;-0.99;81.33
51926;BME280;37952;51.938;15.480;2022-11-22T06:02:18;98501.35;;;-0.97;81.31
51926;BME280;37952;51.938;15.480;2022-11-22T06:05:19;98497.88;;;-0.96;81.50
51926;BME280;37952;51.938;15.480;2022-11-22T06:08:21;98491.40;;;-1.00;81.79
51926;BME280;37952;51.938;15.480;2022-11-22T06:11:24;98497.02;;;-0.97;81.49
51926;BME280;37952;51.938;15.480;2022-11-22T06:14:26;98500.77;;;-0.95;81.78
51926;BME280;37952;51.938;15.480;2022-11-22T06:17:27;98500.19;;;-0.98;81.66
51926;BME280;37952;51.938;15.480;2022-11-22T06:20:29;98500.96;;;-0.96;81.91
51926;BME280;37952;51.938;15.480;2022-11-22T06:23:31;98500.20;;;-0.94;81.92
51926;BME280;37952;51.938;15.480;2022-11-22T06:26:35;98498.51;;;-0.95;81.76
51926;BME280;37952;51.938;15.480;2022-11-22T06:29:40;98501.82;;;-0.95;82.27
51926;BME280;37952;51.938;15.480;2022-11-22T06:32:42;98498.08;;;-0.97;82.03
51926;BME280;37952;51.938;15.480;2022-11-22T06:35:44;98496.98;;;-0.95;81.86
51926;BME280;37952;51.938;15.480;2022-11-22T06:38:46;98492.61;;;-0.94;82.25
51926;BME280;37952;51.938;15.480;2022-11-22T06:41:48;98490.91;;;-0.95;82.36
51926;BME280;37952;51.938;15.480;2022-11-22T06:44:49;98495.86;;;-0.93;82.09
51926;BME280;37952;51.938;15.480;2022-11-22T06:47:52;98497.27;;;-0.83;82.06
51926;BME280;37952;51.938;15.480;2022-11-22T06:50:59;98495.11;;;-0.81;81.88
51926;BME280;37952;51.938;15.480;2022-11-22T06:54:01;98494.28;;;-0.82;82.19
51926;BME280;37952;51.938;15.480;2022-11-22T06:57:03;98492.52;;;-0.81;82.08
51926;BME280;37952;51.938;15.480;2022-11-22T07:00:05;98487.36;;;-0.82;82.09
51926;BME280;37952;51.938;15.480;2022-11-22T07:03:06;98491.17;;;-0.82;82.28
51926;BME280;37952;51.938;15.480;2022-11-22T07:06:10;98491.63;;;-0.80;82.39
51926;BME280;37952;51.938;15.480;2022-11-22T07:09:14;98488.13;;;-0.79;82.65
51926;BME280;37952;51.938;15.480;2022-11-22T07:12:15;98485.63;;;-0.77;82.58
51926;BME280;37952;51.938;15.480;2022-11-22T07:15:17;98498.68;;;-0.69;82.40
51926;BME280;37952;51.938;15.480;2022-11-22T07:18:18;98505.92;;;-0.69;82.35
51926;BME280;37952;51.938;15.480;2022-11-22T07:21:23;98500.46;;;-0.66;82.41
51926;BME280;37952;51.938;15.480;2022-11-22T07:24:25;98495.51;;;-0.57;82.20
51926;BME280;37952;51.938;15.480;2022-11-22T07:27:27;98501.39;;;-0.57;82.37
51926;BME280;37952;51.938;15.480;2022-11-22T07:30:28;98501.77;;;-0.58;82.30
51926;BME280;37952;51.938;15.480;2022-11-22T07:33:30;98497.12;;;-0.59;82.58
51926;BME280;37952;51.938;15.480;2022-11-22T07:36:31;98503.95;;;-0.56;82.37
51926;BME280;37952;51.938;15.480;2022-11-22T07:39:33;98508.63;;;-0.52;82.13
51926;BME280;37952;51.938;15.480;2022-11-22T07:42:34;98508.20;;;-0.54;82.25
51926;BME280;37952;51.938;15.480;2022-11-22T07:45:36;98507.48;;;-0.59;82.60
51926;BME280;37952;51.938;15.480;2022-11-22T07:48:37;98502.52;;;-0.60;82.67
51926;BME280;37952;51.938;15.480;2022-11-22T07:51:39;98503.54;;;-0.55;82.41
51926;BME280;37952;51.938;15.480;2022-11-22T07:54:41;98498.79;;;-0.53;82.84
51926;BME280;37952;51.938;15.480;2022-11-22T07:57:44;98496.84;;;-0.51;82.64
51926;BME280;37952;51.938;15.480;2022-11-22T08:00:50;98499.49;;;-0.48;82.58
51926;BME280;37952;51.938;15.480;2022-11-22T08:03:52;98490.58;;;-0.45;82.22
51926;BME280;37952;51.938;15.480;2022-11-22T08:06:53;98498.63;;;-0.38;82.29
51926;BME280;37952;51.938;15.480;2022-11-22T08:09:55;98497.03;;;-0.42;82.40
51926;BME280;37952;51.938;15.480;2022-11-22T08:12:59;98502.95;;;-0.38;82.24
51926;BME280;37952;51.938;15.480;2022-11-22T08:16:08;98503.85;;;-0.39;82.56
51926;BME280;37952;51.938;15.480;2022-11-22T08:19:10;98501.95;;;-0.40;82.13
51926;BME280;37952;51.938;15.480;2022-11-22T08:22:16;98497.15;;;-0.36;82.11
51926;BME280;37952;51.938;15.480;2022-11-22T08:25:17;98494.44;;;-0.37;82.50
51926;BME280;37952;51.938;15.480;2022-11-22T08:28:19;98491.35;;;-0.33;82.50
51926;BME280;37952;51.938;15.480;2022-11-22T08:31:20;98494.38;;;-0.31;82.05
51926;BME280;37952;51.938;15.480;2022-11-22T08:34:22;98495.00;;;-0.29;82.15
51926;BME280;37952;51.938;15.480;2022-11-22T08:37:24;98491.92;;;-0.26;82.03
51926;BME280;37952;51.938;15.480;2022-11-22T08:40:28;98494.86;;;-0.25;82.24
51926;BME280;37952;51.938;15.480;2022-11-22T08:43:30;98495.55;;;-0.25;82.26
51926;BME280;37952;51.938;15.480;2022-11-22T08:46:31;98499.15;;;-0.24;82.14
51926;BME280;37952;51.938;15.480;2022-11-22T08:49:33;98505.21;;;-0.19;81.89
51926;BME280;37952;51.938;15.480;2022-11-22T08:52:35;98504.29;;;-0.18;81.79
51926;BME280;37952;51.938;15.480;2022-11-22T08:55:36;98500.56;;;-0.20;82.00
51926;BME280;37952;51.938;15.480;2022-11-22T08:58:38;98506.45;;;-0.15;81.78
51926;BME280;37952;51.938;15.480;2022-11-22T09:01:39;98511.80;;;-0.15;81.93
51926;BME280;37952;51.938;15.480;2022-11-22T09:04:41;98505.77;;;-0.15;81.60
51926;BME280;37952;51.938;15.480;2022-11-22T09:07:43;98510.44;;;-0.10;81.80
51926;BME280;37952;51.938;15.480;2022-11-22T09:11:13;98506.80;;;-0.06;81.82
51926;BME280;37952;51.938;15.480;2022-11-22T09:14:15;98505.37;;;-0.09;81.65
51926;BME280;37952;51.938;15.480;2022-11-22T09:17:17;98509.23;;;-0.06;81.80
51926;BME280;37952;51.938;15.480;2022-11-22T09:20:19;98513.58;;;-0.07;81.66
51926;BME280;37952;51.938;15.480;2022-11-22T09:23:21;98513.10;;;-0.13;82.01
51926;BME280;37952;51.938;15.480;2022-11-22T09:26:22;98511.05;;;-0.13;82.00
51926;BME280;37952;51.938;15.480;2022-11-22T09:29:27;98502.86;;;-0.12;81.89
51926;BME280;37952;51.938;15.480;2022-11-22T09:32:29;98494.71;;;-0.11;81.86
51926;BME280;37952;51.938;15.480;2022-11-22T09:35:34;98492.09;;;-0.11;81.84
51926;BME280;37952;51.938;15.480;2022-11-22T09:38:36;98499.79;;;-0.08;81.76
51926;BME280;37952;51.938;15.480;2022-11-22T09:55:33;98512.56;;;0.03;81.52
51926;BME280;37952;51.938;15.480;2022-11-22T09:58:40;98515.92;;;0.05;81.71
51926;BME280;37952;51.938;15.480;2022-11-22T10:05:23;98509.94;;;0.03;81.76
51926;BME280;37952;51.938;15.480;2022-11-22T10:11:58;98492.52;;;0.10;81.76
51926;BME280;37952;51.938;15.480;2022-11-22T10:19:17;98504.84;;;0.09;81.98
51926;BME280;37952;51.938;15.480;2022-11-22T10:22:21;98493.35;;;0.06;81.56
51926;BME280;37952;51.938;15.480;2022-11-22T10:28:59;98507.44;;;0.14;81.53
51926;BME280;37952;51.938;15.480;2022-11-22T10:32:13;98511.48;;;0.13;81.55
51926;BME280;37952;51.938;15.480;2022-11-22T10:45:16;98519.52;;;0.16;81.58
51926;BME280;37952;51.938;15.480;2022-11-22T10:48:42;98519.33;;;0.21;81.35
51926;BME280;37952;51.938;15.480;2022-11-22T10:52:27;98519.25;;;0.18;81.72
51926;BME280;37952;51.938;15.480;2022-11-22T10:59:15;98513.50;;;0.28;81.27
51926;BME280;37952;51.938;15.480;2022-11-22T11:02:35;98507.60;;;0.28;81.34
51926;BME280;37952;51.938;15.480;2022-11-22T11:05:50;98506.34;;;0.29;81.65
51926;BME280;37952;51.938;15.480;2022-11-22T11:09:31;98507.63;;;0.32;81.26
51926;BME280;37952;51.938;15.480;2022-11-22T11:13:01;98504.05;;;0.35;81.34
51926;BME280;37952;51.938;15.480;2022-11-22T11:16:07;98502.81;;;0.40;81.16
51926;BME280;37952;51.938;15.480;2022-11-22T11:22:17;98499.80;;;0.50;81.27
51926;BME280;37952;51.938;15.480;2022-11-22T11:25:41;98499.06;;;0.47;81.15
51926;BME280;37952;51.938;15.480;2022-11-22T11:28:44;98498.63;;;0.50;81.08
51926;BME280;37952;51.938;15.480;2022-11-22T11:32:06;98502.73;;;0.51;81.20
51926;BME280;37952;51.938;15.480;2022-11-22T11:35:13;98497.67;;;0.52;81.07
51926;BME280;37952;51.938;15.480;2022-11-22T11:38:50;98490.48;;;0.54;81.12
51926;BME280;37952;51.938;15.480;2022-11-22T11:41:53;98488.75;;;0.54;81.16
51926;BME280;37952;51.938;15.480;2022-11-22T11:48:34;98496.06;;;0.61;81.19
51926;BME280;37952;51.938;15.480;2022-11-22T11:51:54;98498.30;;;0.62;81.06
51926;BME280;37952;51.938;15.480;2022-11-22T11:54:59;98500.22;;;0.67;80.97
51926;BME280;37952;51.938;15.480;2022-11-22T11:58:19;98498.85;;;0.70;80.92
51926;BME280;37952;51.938;15.480;2022-11-22T12:01:21;98495.13;;;0.72;80.91
51926;BME280;37952;51.938;15.480;2022-11-22T12:04:26;98494.80;;;0.76;80.71
51926;BME280;37952;51.938;15.480;2022-11-22T12:10:46;98502.39;;;0.85;80.68
51926;BME280;37952;51.938;15.480;2022-11-22T12:13:54;98503.20;;;0.91;80.74
51926;BME280;37952;51.938;15.480;2022-11-22T12:17:23;98503.45;;;0.93;80.66
51926;BME280;37952;51.938;15.480;2022-11-22T12:27:25;98525.27;;;0.99;80.22
51926;BME280;37952;51.938;15.480;2022-11-22T12:30:27;98520.38;;;1.04;80.50
51926;BME280;37952;51.938;15.480;2022-11-22T12:33:35;98516.54;;;1.04;80.31
51926;BME280;37952;51.938;15.480;2022-11-22T12:36:46;98515.59;;;1.06;80.36
51926;BME280;37952;51.938;15.480;2022-11-22T12:39:52;98513.95;;;1.08;80.07
51926;BME280;37952;51.938;15.480;2022-11-22T12:43:05;98512.44;;;1.07;80.17
51926;BME280;37952;51.938;15.480;2022-11-22T12:46:12;98510.45;;;1.04;80.41
51926;BME280;37952;51.938;15.480;2022-11-22T12:49:38;98497.84;;;0.99;80.29
51926;BME280;37952;51.938;15.480;2022-11-22T12:52:51;98498.89;;;1.03;80.34
51926;BME280;37952;51.938;15.480;2022-11-22T12:56:09;98484.41;;;0.97;80.23
51926;BME280;37952;51.938;15.480;2022-11-22T12:59:31;98494.16;;;1.04;80.11
51926;BME280;37952;51.938;15.480;2022-11-22T13:03:04;98492.86;;;1.06;80.25
51926;BME280;37952;51.938;15.480;2022-11-22T13:06:15;98486.96;;;1.10;80.10
51926;BME280;37952;51.938;15.480;2022-11-22T13:09:30;98491.56;;;1.13;80.12
51926;BME280;37952;51.938;15.480;2022-11-22T13:12:36;98490.95;;;1.15;80.08
51926;BME280;37952;51.938;15.480;2022-11-22T13:15:39;98497.65;;;1.17;80.01
51926;BME280;37952;51.938;15.480;2022-11-22T13:18:49;98501.52;;;1.15;80.16
51926;BME280;37952;51.938;15.480;2022-11-22T13:28:38;98509.39;;;1.13;80.24
51926;BME280;37952;51.938;15.480;2022-11-22T13:32:02;98505.70;;;1.10;80.34
51926;BME280;37952;51.938;15.480;2022-11-22T13:38:17;98499.84;;;1.10;80.31
51926;BME280;37952;51.938;15.480;2022-11-22T13:41:22;98497.39;;;1.06;80.26
51926;BME280;37952;51.938;15.480;2022-11-22T13:47:42;98486.81;;;1.10;80.39
51926;BME280;37952;51.938;15.480;2022-11-22T13:51:00;98476.33;;;1.08;80.21
51926;BME280;37952;51.938;15.480;2022-11-22T13:57:48;98479.70;;;1.09;80.75
51926;BME280;37952;51.938;15.480;2022-11-22T14:00:56;98478.67;;;1.09;80.42
51926;BME280;37952;51.938;15.480;2022-11-22T14:07:30;98471.06;;;1.13;80.29
51926;BME280;37952;51.938;15.480;2022-11-22T14:14:14;98470.27;;;1.12;80.23
51926;BME280;37952;51.938;15.480;2022-11-22T14:17:40;98472.15;;;1.12;80.36
51926;BME280;37952;51.938;15.480;2022-11-22T14:40:30;98477.55;;;1.07;80.25
51926;BME280;37952;51.938;15.480;2022-11-22T14:43:35;98476.67;;;1.08;80.54
51926;BME280;37952;51.938;15.480;2022-11-22T14:46:44;98480.27;;;1.09;80.46
51926;BME280;37952;51.938;15.480;2022-11-22T14:49:55;98476.80;;;1.09;80.44
51926;BME280;37952;51.938;15.480;2022-11-22T14:53:03;98478.50;;;1.09;80.59
51926;BME280;37952;51.938;15.480;2022-11-22T14:56:17;98484.49;;;1.11;80.87
51926;BME280;37952;51.938;15.480;2022-11-22T15:03:13;98489.02;;;1.11;80.53
51926;BME280;37952;51.938;15.480;2022-11-22T15:10:34;98482.45;;;1.06;81.19
51926;BME280;37952;51.938;15.480;2022-11-22T15:17:34;98497.55;;;1.06;81.36
51926;BME280;37952;51.938;15.480;2022-11-22T15:20:57;98501.44;;;1.08;80.96
51926;BME280;37952;51.938;15.480;2022-11-22T15:24:20;98514.36;;;1.11;81.05
51926;BME280;37952;51.938;15.480;2022-11-22T15:27:42;98517.41;;;1.13;80.99
51926;BME280;37952;51.938;15.480;2022-11-22T15:31:12;98518.44;;;1.13;81.12
51926;BME280;37952;51.938;15.480;2022-11-22T15:34:34;98524.50;;;1.14;81.02
51926;BME280;37952;51.938;15.480;2022-11-22T15:38:16;98523.89;;;1.16;80.95
51926;BME280;37952;51.938;15.480;2022-11-22T15:41:40;98519.16;;;1.17;81.30
51926;BME280;37952;51.938;15.480;2022-11-22T15:45:02;98517.67;;;1.15;81.53
51926;BME280;37952;51.938;15.480;2022-11-22T15:48:53;98517.70;;;1.14;81.48
51926;BME280;37952;51.938;15.480;2022-11-22T15:52:21;98520.01;;;1.13;81.71
51926;BME280;37952;51.938;15.480;2022-11-22T15:55:56;98510.05;;;1.15;81.72
51926;BME280;37952;51.938;15.480;2022-11-22T15:59:26;98510.19;;;1.15;81.64
51926;BME280;37952;51.938;15.480;2022-11-22T16:02:29;98509.00;;;1.15;81.66
51926;BME280;37952;51.938;15.480;2022-11-22T16:05:35;98510.52;;;1.16;81.79
51926;BME280;37952;51.938;15.480;2022-11-22T16:09:06;98510.15;;;1.17;81.78
51926;BME280;37952;51.938;15.480;2022-11-22T16:12:28;98509.84;;;1.19;81.75
51926;BME280;37952;51.938;15.480;2022-11-22T16:15:33;98513.65;;;1.19;81.86
51926;BME280;37952;51.938;15.480;2022-11-22T16:18:44;98513.70;;;1.22;82.03
51926;BME280;37952;51.938;15.480;2022-11-22T16:21:58;98497.89;;;1.19;82.01
51926;BME280;37952;51.938;15.480;2022-11-22T16:25:37;98508.55;;;1.22;82.00
51926;BME280;37952;51.938;15.480;2022-11-22T16:28:54;98510.86;;;1.20;82.05
51926;BME280;37952;51.938;15.480;2022-11-22T16:32:38;98509.50;;;1.23;82.28
51926;BME280;37952;51.938;15.480;2022-11-22T16:36:14;98513.65;;;1.28;82.52
51926;BME280;37952;51.938;15.480;2022-11-22T16:39:35;98518.96;;;1.30;82.43
51926;BME280;37952;51.938;15.480;2022-11-22T16:42:37;98525.10;;;1.28;82.55
51926;BME280;37952;51.938;15.480;2022-11-22T16:45:43;98527.48;;;1.25;82.39
51926;BME280;37952;51.938;15.480;2022-11-22T16:48:48;98537.19;;;1.34;82.49
51926;BME280;37952;51.938;15.480;2022-11-22T16:51:54;98535.21;;;1.36;82.40
51926;BME280;37952;51.938;15.480;2022-11-22T16:55:08;98542.16;;;1.35;82.35
51926;BME280;37952;51.938;15.480;2022-11-22T16:58:24;98551.34;;;1.40;82.28
51926;BME280;37952;51.938;15.480;2022-11-22T17:01:31;98557.59;;;1.44;82.32
51926;BME280;37952;51.938;15.480;2022-11-22T17:04:34;98556.13;;;1.42;82.29
51926;BME280;37952;51.938;15.480;2022-11-22T17:07:42;98554.79;;;1.41;82.29
51926;BME280;37952;51.938;15.480;2022-11-22T17:10:47;98547.23;;;1.43;82.46
51926;BME280;37952;51.938;15.480;2022-11-22T17:13:51;98541.55;;;1.45;82.12
51926;BME280;37952;51.938;15.480;2022-11-22T17:16:55;98536.42;;;1.44;82.15
51926;BME280;37952;51.938;15.480;2022-11-22T17:20:06;98533.49;;;1.39;82.14
51926;BME280;37952;51.938;15.480;2022-11-22T17:23:13;98538.92;;;1.42;82.20
51926;BME280;37952;51.938;15.480;2022-11-22T17:26:16;98539.15;;;1.45;82.30
51926;BME280;37952;51.938;15.480;2022-11-22T17:29:24;98530.60;;;1.42;82.19
51926;BME280;37952;51.938;15.480;2022-11-22T17:32:46;98541.33;;;1.51;82.21
51926;BME280;37952;51.938;15.480;2022-11-22T17:35:48;98535.83;;;1.46;82.00
51926;BME280;37952;51.938;15.480;2022-11-22T17:38:55;98559.19;;;1.56;81.99
51926;BME280;37952;51.938;15.480;2022-11-22T17:41:56;98564.55;;;1.56;81.79
51926;BME280;37952;51.938;15.480;2022-11-22T17:44:58;98564.76;;;1.55;81.78
51926;BME280;37952;51.938;15.480;2022-11-22T17:48:01;98566.78;;;1.57;81.76
51926;BME280;37952;51.938;15.480;2022-11-22T17:51:08;98569.81;;;1.59;81.62
51926;BME280;37952;51.938;15.480;2022-11-22T17:54:10;98568.23;;;1.59;81.61
51926;BME280;37952;51.938;15.480;2022-11-22T17:57:13;98564.74;;;1.59;81.60
51926;BME280;37952;51.938;15.480;2022-11-22T18:00:18;98558.08;;;1.57;81.77
51926;BME280;37952;51.938;15.480;2022-11-22T18:03:20;98573.52;;;1.66;81.53
51926;BME280;37952;51.938;15.480;2022-11-22T18:06:22;98575.28;;;1.65;81.52
51926;BME280;37952;51.938;15.480;2022-11-22T18:09:31;98559.20;;;1.55;81.48
51926;BME280;37952;51.938;15.480;2022-11-22T18:12:36;98579.83;;;1.65;81.50
51926;BME280;37952;51.938;15.480;2022-11-22T18:15:57;98589.66;;;1.66;81.71
51926;BME280;37952;51.938;15.480;2022-11-22T18:19:11;98600.92;;;1.67;81.43
51926;BME280;37952;51.938;15.480;2022-11-22T18:22:13;98608.58;;;1.66;81.51